SAZN

Neuquén/Presidente Perón International Airport

Airport
ICAO code
SAZN
IATA Code
NQN
Summary
ICAO Region
CARSAM
ICAO Territory
Location

Neuquén, Neuquén

Serving
Neuquén
Elevation
961 ft
Coordinates
38° 57' 7" S , 68° 8' 25" W
Metar
Observation
SAZN 071800Z 29022G35KT 3500 BLDU NSC 22/M05 Q1002
Station
Neuquen Aerodrome
Date/Time
2022-10-07 18:00:00
Wind direction
290°
Wind speed
22 kts
Lowest cloud amount
nil significant cloud
Temperature
22°C
Dew point
-5°C
Humidity
15%
QNH
1002 hPa
Weather condition
n/a

Presidente Perón International Airport is an airport in Neuquén Province, Argentina serving the cities of Neuquén, Cipolletti, Plottier, Centenario, and General Roca.

Runways

Designator Length Width Surface Rops
9/27 2570 45 ASP Yes/Yes

Airport map

Aerial View

SKYbrary Partners:

Safety knowledge contributed by: